Terminal Aerodrome Forecast
Issued by NWS

Home | Current Version | Previous Version | Text Only | Print | Product List | Glossary Off
Versions: 1 2 3 4 5 6 7 8 9 10 11 12 13 14 15 16 17 18 19 20

593
FTUS43 KBIS 231425 AAB
TAFMOT
TAF AMD
KMOT 231425Z 2314/2412 10015G20KT P6SM -SN OVC050
      TEMPO 2315/2317 4SM -SN OVC030
     FM231700 10016G24KT P6SM OVC030
     FM231900 10016G24KT P6SM OVC015
     FM240800 08012G20KT P6SM OVC008
     FM241000 06010KT P6SM OVC008
     FM241100 05010KT 4SM -SN OVC008=

USA.gov is the U.S. government's official web portal to all federal, state and local government web resources and services.